Time;durP1;ratioP1;P1;durP2;ratioP2;P2;SDS_P1;SDS_P2;PMS_P1;PMS_P2;Temp;Humidity;BMP_temperature;BMP_pressure;BME280_temperature;BME280_humidity;BME280_pressure;Samples;Min_cycle;Max_cycle;Signal;HPM_P1;HPM_P2
2021/10/29 00:01:28;;;;;;;15.53;10.73;;;;;;;;;;5046015;28;20209;-71
2021/10/29 00:03:54;;;;;;;12.67;10.13;;;;;;;;;;5047072;28;20236;-71
2021/10/29 00:06:20;;;;;;;11.83;10.47;;;;;;;;;;5046185;28;20232;-71
2021/10/29 00:08:47;;;;;;;13.03;10.57;;;;;;;;;;5047024;28;20263;-71
2021/10/29 00:11:13;;;;;;;16.70;11.37;;;;;;;;;;5046285;28;20689;-71
2021/10/29 00:13:40;;;;;;;11.87;10.67;;;;;;;;;;5045925;28;20670;-71
2021/10/29 00:16:07;;;;;;;13.73;11.10;;;;;;;;;;5046404;28;20225;-71
2021/10/29 00:18:34;;;;;;;11.30;10.20;;;;;;;;;;5045831;28;20271;-71
2021/10/29 00:21:00;;;;;;;11.13;9.80;;;;;;;;;;5046884;28;20275;-71
2021/10/29 00:23:28;;;;;;;12.23;9.63;;;;;;;;;;5045471;28;20236;-71
2021/10/29 00:25:54;;;;;;;12.07;10.50;;;;;;;;;;5046183;28;20222;-71
2021/10/29 00:28:21;;;;;;;13.53;10.17;;;;;;;;;;5045077;28;20770;-71
2021/10/29 00:30:47;;;;;;;12.07;9.57;;;;;;;;;;5045252;28;20249;-71
2021/10/29 00:33:16;;;;;;;11.23;10.03;;;;;;;;;;5044880;28;20213;-71
2021/10/29 00:35:42;;;;;;;12.10;9.97;;;;;;;;;;5045351;28;20265;-71
2021/10/29 00:38:09;;;;;;;12.27;9.93;;;;;;;;;;5045989;28;20230;-71
2021/10/29 00:40:38;;;;;;;10.43;9.40;;;;;;;;;;5046019;28;20212;-71
2021/10/29 00:43:04;;;;;;;11.57;10.37;;;;;;;;;;5046160;28;20227;-71
2021/10/29 00:45:31;;;;;;;12.17;9.93;;;;;;;;;;5045250;28;20787;-71
2021/10/29 00:47:57;;;;;;;13.80;9.40;;;;;;;;;;5045734;28;20216;-71
2021/10/29 00:50:25;;;;;;;14.67;10.20;;;;;;;;;;5044806;28;20241;-71
2021/10/29 00:52:51;;;;;;;12.23;8.87;;;;;;;;;;5044937;28;20795;-71
2021/10/29 00:55:18;;;;;;;11.37;9.77;;;;;;;;;;5044394;28;20237;-71
2021/10/29 00:57:44;;;;;;;11.27;9.80;;;;;;;;;;5045421;28;20622;-71
2021/10/29 01:00:13;;;;;;;12.57;10.20;;;;;;;;;;5045721;28;20210;-71
2021/10/29 01:02:39;;;;;;;10.83;9.70;;;;;;;;;;5044907;28;20672;-71
2021/10/29 01:05:07;;;;;;;13.43;9.90;;;;;;;;;;5044783;28;20620;-71
2021/10/29 01:07:35;;;;;;;11.40;9.63;;;;;;;;;;5045279;28;20226;-71
2021/10/29 01:10:01;;;;;;;12.30;9.30;;;;;;;;;;5045246;28;20620;-71
2021/10/29 01:12:28;;;;;;;12.80;9.63;;;;;;;;;;5044333;28;20277;-71
2021/10/29 01:14:55;;;;;;;11.87;9.83;;;;;;;;;;5044979;28;20686;-71
2021/10/29 01:17:22;;;;;;;11.00;9.67;;;;;;;;;;5045566;28;20221;-71
2021/10/29 01:19:51;;;;;;;11.50;9.13;;;;;;;;;;5045656;28;20692;-71
2021/10/29 01:22:19;;;;;;;11.77;9.17;;;;;;;;;;5044570;28;20224;-71
2021/10/29 01:24:45;;;;;;;12.37;9.67;;;;;;;;;;5045314;28;20628;-71
2021/10/29 01:27:13;;;;;;;13.33;9.70;;;;;;;;;;5044247;28;20215;-71
2021/10/29 01:29:40;;;;;;;12.10;10.80;;;;;;;;;;5044021;28;20906;-71
2021/10/29 01:32:08;;;;;;;11.03;9.93;;;;;;;;;;5044587;28;20291;-71
2021/10/29 01:34:35;;;;;;;10.83;9.73;;;;;;;;;;5044776;28;20229;-71
2021/10/29 01:37:01;;;;;;;13.73;10.43;;;;;;;;;;5045308;28;20219;-71
2021/10/29 01:39:29;;;;;;;13.60;10.53;;;;;;;;;;5045189;28;20368;-71
2021/10/29 01:41:55;;;;;;;13.50;11.27;;;;;;;;;;5044976;28;20213;-71
2021/10/29 01:44:22;;;;;;;12.57;10.07;;;;;;;;;;5044182;28;21115;-71
2021/10/29 01:46:49;;;;;;;12.60;11.27;;;;;;;;;;5045404;28;20603;-71
2021/10/29 01:49:16;;;;;;;13.00;10.83;;;;;;;;;;5043661;28;20240;-71
2021/10/29 01:51:43;;;;;;;12.00;10.30;;;;;;;;;;5044335;28;20217;-71
2021/10/29 01:54:09;;;;;;;11.77;10.53;;;;;;;;;;5044544;28;20704;-71
2021/10/29 01:56:37;;;;;;;12.00;10.80;;;;;;;;;;5044902;28;20273;-71
2021/10/29 01:59:03;;;;;;;11.40;9.87;;;;;;;;;;5044321;28;20229;-71
2021/10/29 02:01:30;;;;;;;12.13;9.93;;;;;;;;;;5044102;28;20212;-71
2021/10/29 02:03:56;;;;;;;11.63;9.87;;;;;;;;;;5044090;28;20236;-71
2021/10/29 02:06:23;;;;;;;12.17;9.83;;;;;;;;;;5044327;28;20752;-71
2021/10/29 02:08:51;;;;;;;12.43;10.40;;;;;;;;;;5044651;28;20310;-71
2021/10/29 02:11:17;;;;;;;12.97;10.57;;;;;;;;;;5046951;28;20291;-71
2021/10/29 02:13:45;;;;;;;11.97;10.77;;;;;;;;;;5049276;28;20255;-71
2021/10/29 02:16:11;;;;;;;13.63;10.53;;;;;;;;;;5048324;28;20259;-71
2021/10/29 02:18:38;;;;;;;13.10;10.43;;;;;;;;;;5047594;28;20227;-71
2021/10/29 02:21:05;;;;;;;14.17;10.37;;;;;;;;;;5048014;28;20586;-71
2021/10/29 02:23:31;;;;;;;13.77;10.60;;;;;;;;;;5047821;28;20244;-71
2021/10/29 02:25:58;;;;;;;12.43;10.23;;;;;;;;;;5047387;28;20617;-71
2021/10/29 02:28:24;;;;;;;11.27;9.47;;;;;;;;;;5046885;28;20244;-71
2021/10/29 02:30:52;;;;;;;11.80;10.27;;;;;;;;;;5048092;28;20688;-71
2021/10/29 02:33:19;;;;;;;12.67;10.20;;;;;;;;;;5047744;28;20307;-71
2021/10/29 02:35:47;;;;;;;12.23;11.00;;;;;;;;;;5047244;28;20319;-71
2021/10/29 02:38:13;;;;;;;12.10;10.57;;;;;;;;;;5047994;28;20225;-72
2021/10/29 02:40:40;;;;;;;11.33;9.87;;;;;;;;;;5048001;28;20559;-71
2021/10/29 02:43:07;;;;;;;14.13;10.57;;;;;;;;;;5048138;28;20624;-71
2021/10/29 02:45:33;;;;;;;12.77;10.70;;;;;;;;;;5046996;28;20223;-71
2021/10/29 02:48:01;;;;;;;12.00;9.70;;;;;;;;;;5048525;28;20868;-71
2021/10/29 02:50:27;;;;;;;12.33;10.80;;;;;;;;;;5047901;28;20225;-71
2021/10/29 02:52:54;;;;;;;12.00;10.07;;;;;;;;;;5047467;28;20241;-71
2021/10/29 02:55:20;;;;;;;11.37;10.17;;;;;;;;;;5047036;28;20669;-71
2021/10/29 02:57:47;;;;;;;13.57;10.97;;;;;;;;;;5047985;28;20212;-71
2021/10/29 03:00:16;;;;;;;10.53;9.43;;;;;;;;;;5047302;28;20216;-71
2021/10/29 03:02:43;;;;;;;14.23;10.50;;;;;;;;;;5046183;28;20218;-71
2021/10/29 03:05:12;;;;;;;15.10;9.47;;;;;;;;;;5047929;28;20240;-71
2021/10/29 03:07:39;;;;;;;11.70;10.00;;;;;;;;;;5047715;28;20224;-71
2021/10/29 03:10:07;;;;;;;11.77;10.50;;;;;;;;;;5047812;28;20241;-71
2021/10/29 03:12:34;;;;;;;12.63;10.03;;;;;;;;;;5046788;28;20584;-71
2021/10/29 03:15:00;;;;;;;15.23;10.40;;;;;;;;;;5046986;28;20214;-71
2021/10/29 03:17:27;;;;;;;11.37;10.27;;;;;;;;;;5047269;28;20295;-71
2021/10/29 03:19:54;;;;;;;10.03;9.00;;;;;;;;;;5047436;28;20231;-71
2021/10/29 03:22:22;;;;;;;12.37;9.60;;;;;;;;;;5046980;28;20221;-71
2021/10/29 03:24:48;;;;;;;13.23;9.93;;;;;;;;;;5047793;28;20240;-71
2021/10/29 03:27:14;;;;;;;12.30;9.20;;;;;;;;;;5047350;28;20668;-71
2021/10/29 03:29:41;;;;;;;12.07;9.87;;;;;;;;;;5046116;28;20247;-71
2021/10/29 03:32:08;;;;;;;10.73;9.43;;;;;;;;;;5046384;28;20233;-71
2021/10/29 03:34:35;;;;;;;13.30;9.80;;;;;;;;;;5046816;28;20232;-71
2021/10/29 03:37:04;;;;;;;13.57;10.20;;;;;;;;;;5047068;28;20217;-71
2021/10/29 03:39:34;;;;;;;12.27;9.97;;;;;;;;;;5046143;28;20814;-71
2021/10/29 03:42:05;;;;;;;12.10;9.83;;;;;;;;;;5046790;28;20547;-71
2021/10/29 03:44:42;;;;;;;12.47;9.40;;;;;;;;;;5047477;28;20358;-71
2021/10/29 03:47:09;;;;;;;10.43;9.30;;;;;;;;;;5047579;28;20222;-71
2021/10/29 03:49:40;;;;;;;12.67;9.43;;;;;;;;;;5046893;28;20237;-71
2021/10/29 03:52:12;;;;;;;11.20;9.63;;;;;;;;;;5046508;28;20266;-71
2021/10/29 03:54:42;;;;;;;11.47;10.00;;;;;;;;;;5046501;28;20268;-71
2021/10/29 03:57:23;;;;;;;10.67;9.13;;;;;;;;;;5046712;28;20703;-71
2021/10/29 03:59:49;;;;;;;11.87;9.50;;;;;;;;;;5046570;28;20220;-71
2021/10/29 04:02:16;;;;;;;12.63;9.97;;;;;;;;;;5045782;28;20278;-71
2021/10/29 04:04:42;;;;;;;11.07;9.47;;;;;;;;;;5046232;28;20241;-71
2021/10/29 04:07:09;;;;;;;12.07;10.03;;;;;;;;;;5046404;28;20221;-71
2021/10/29 04:09:35;;;;;;;13.10;9.93;;;;;;;;;;5046108;28;20233;-71
2021/10/29 04:12:03;;;;;;;13.17;8.90;;;;;;;;;;5045575;28;20270;-71
2021/10/29 04:14:30;;;;;;;10.27;8.63;;;;;;;;;;5044357;28;20599;-71
2021/10/29 04:16:57;;;;;;;11.30;9.83;;;;;;;;;;5045030;28;20224;-71
2021/10/29 04:19:24;;;;;;;11.77;10.20;;;;;;;;;;5044276;28;20229;-71
2021/10/29 04:21:50;;;;;;;11.33;9.13;;;;;;;;;;5044795;28;20641;-71
2021/10/29 04:24:17;;;;;;;10.73;9.47;;;;;;;;;;5046248;28;20230;-71
2021/10/29 04:26:43;;;;;;;12.67;9.60;;;;;;;;;;5045727;28;20624;-71
2021/10/29 04:29:14;;;;;;;12.20;9.17;;;;;;;;;;5045091;28;20295;-72
2021/10/29 04:31:48;;;;;;;11.95;9.27;;;;;;;;;;5045635;28;20463;-77
2021/10/29 04:34:15;;;;;;;11.77;9.50;;;;;;;;;;5044247;28;20233;-77
2021/10/29 04:36:41;;;;;;;11.20;9.60;;;;;;;;;;5045012;28;20247;-77
2021/10/29 04:39:11;;;;;;;11.93;9.87;;;;;;;;;;5045950;28;20283;-77
2021/10/29 04:41:38;;;;;;;11.93;10.53;;;;;;;;;;5045883;28;20230;-77
2021/10/29 04:44:04;;;;;;;10.87;9.60;;;;;;;;;;5046148;28;20266;-77
2021/10/29 04:46:32;;;;;;;12.43;9.20;;;;;;;;;;5046276;28;20216;-77
2021/10/29 04:48:58;;;;;;;11.20;8.93;;;;;;;;;;5045929;28;20652;-77
2021/10/29 04:51:25;;;;;;;11.17;9.47;;;;;;;;;;5045955;28;20267;-77
2021/10/29 04:53:52;;;;;;;12.00;9.77;;;;;;;;;;5045671;28;20858;-77
2021/10/29 04:56:18;;;;;;;10.50;8.90;;;;;;;;;;5045339;28;20267;-76
2021/10/29 04:58:44;;;;;;;13.33;9.20;;;;;;;;;;5045426;28;20266;-77
2021/10/29 05:01:11;;;;;;;13.17;8.53;;;;;;;;;;5045873;28;20274;-77
2021/10/29 05:03:38;;;;;;;12.67;8.77;;;;;;;;;;5045216;28;20221;-77
2021/10/29 05:06:05;;;;;;;12.97;9.40;;;;;;;;;;5045882;28;20579;-77
2021/10/29 05:08:31;;;;;;;11.17;9.20;;;;;;;;;;5045058;28;20574;-77
2021/10/29 05:10:58;;;;;;;12.43;9.77;;;;;;;;;;5045897;28;20224;-77
2021/10/29 05:13:24;;;;;;;12.90;9.87;;;;;;;;;;5044640;28;20566;-77
2021/10/29 05:15:51;;;;;;;12.13;9.20;;;;;;;;;;5045198;28;20212;-77
2021/10/29 05:18:18;;;;;;;11.90;8.77;;;;;;;;;;5045463;28;20232;-77
2021/10/29 05:20:46;;;;;;;11.13;9.03;;;;;;;;;;5046018;28;20315;-77
2021/10/29 05:23:13;;;;;;;12.13;9.40;;;;;;;;;;5044116;28;20236;-77
2021/10/29 05:25:39;;;;;;;11.20;8.90;;;;;;;;;;5045282;28;20221;-77
2021/10/29 05:28:07;;;;;;;11.27;8.60;;;;;;;;;;5046320;28;20239;-77
2021/10/29 05:30:33;;;;;;;10.37;8.40;;;;;;;;;;5043908;28;20217;-77
2021/10/29 05:33:00;;;;;;;10.63;8.80;;;;;;;;;;5044992;28;20766;-77
2021/10/29 05:35:27;;;;;;;10.73;9.30;;;;;;;;;;5045038;28;20592;-77
2021/10/29 05:37:55;;;;;;;10.13;8.43;;;;;;;;;;5045728;28;20208;-77
2021/10/29 05:40:21;;;;;;;11.00;8.37;;;;;;;;;;5044843;28;20227;-77
2021/10/29 05:42:49;;;;;;;15.37;8.90;;;;;;;;;;5045253;28;20220;-77
2021/10/29 05:45:15;;;;;;;10.90;9.07;;;;;;;;;;5047434;28;20717;-77
2021/10/29 05:47:42;;;;;;;10.60;8.20;;;;;;;;;;5048370;28;20852;-77
2021/10/29 05:50:10;;;;;;;10.70;8.90;;;;;;;;;;5049472;28;20620;-77
2021/10/29 05:52:39;;;;;;;14.17;8.73;;;;;;;;;;5048390;28;20336;-77
2021/10/29 05:55:16;;;;;;;11.43;8.83;;;;;;;;;;5049312;28;20316;-77
2021/10/29 05:57:44;;;;;;;10.73;8.47;;;;;;;;;;5049208;28;20252;-76
2021/10/29 06:00:12;;;;;;;10.73;8.87;;;;;;;;;;5048571;28;20278;-76
2021/10/29 06:02:39;;;;;;;9.57;8.60;;;;;;;;;;5048049;28;20218;-77
2021/10/29 06:05:06;;;;;;;9.80;8.77;;;;;;;;;;5048093;28;20316;-77
2021/10/29 06:07:33;;;;;;;10.30;8.93;;;;;;;;;;5035340;28;20226;-77
2021/10/29 06:10:00;;;;;;;12.87;8.10;;;;;;;;;;5045216;28;20236;-76
2021/10/29 06:12:28;;;;;;;16.27;8.97;;;;;;;;;;5045555;28;20209;-77
2021/10/29 06:14:54;;;;;;;11.07;9.33;;;;;;;;;;5045585;28;20282;-77
2021/10/29 06:17:21;;;;;;;12.20;8.30;;;;;;;;;;5046408;28;20220;-77
2021/10/29 06:19:47;;;;;;;13.83;8.67;;;;;;;;;;5045550;28;20240;-76
2021/10/29 06:22:18;;;;;;;10.43;8.23;;;;;;;;;;5045331;28;20209;-77
2021/10/29 06:24:45;;;;;;;11.70;8.50;;;;;;;;;;5045706;28;20221;-77
2021/10/29 06:28:10;;;;;;;9.07;8.13;;;;;;;;;;5047054;28;21114;-77
2021/10/29 06:30:00;;;;;;;10.37;9.20;;;;;;;;;;5046508;28;20588;-76
2021/10/29 06:32:28;;;;;;;10.07;9.00;;;;;;;;;;5044545;28;20263;-76
2021/10/29 06:34:54;;;;;;;10.33;8.43;;;;;;;;;;5045786;28;20225;-76
2021/10/29 06:37:21;;;;;;;11.60;8.63;;;;;;;;;;5046630;28;20213;-77
2021/10/29 06:39:49;;;;;;;10.40;8.00;;;;;;;;;;5046544;28;20256;-77
2021/10/29 06:42:21;;;;;;;12.83;9.13;;;;;;;;;;5045753;28;20222;-77
2021/10/29 06:44:57;;;;;;;10.00;8.27;;;;;;;;;;5046171;28;20221;-76
2021/10/29 06:47:45;;;;;;;9.33;8.10;;;;;;;;;;5046671;28;20619;-77
2021/10/29 07:01:25;;;;;;;11.83;9.27;;;;;;;;;;5035967;28;20243;-77
2021/10/29 07:12:31;;;;;;;11.20;8.30;;;;;;;;;;5045671;28;20204;-77
2021/10/29 07:39:59;;;;;;;8.70;7.47;;;;;;;;;;5044441;28;20291;-76
2021/10/29 07:42:30;;;;;;;9.43;6.93;;;;;;;;;;5045456;28;20205;-76
2021/10/29 07:44:57;;;;;;;9.20;7.93;;;;;;;;;;5044889;28;20665;-76
2021/10/29 07:47:23;;;;;;;9.37;7.43;;;;;;;;;;5042567;28;20221;-76
2021/10/29 07:49:50;;;;;;;8.73;7.83;;;;;;;;;;5043306;28;20234;-76
2021/10/29 07:52:17;;;;;;;8.30;7.40;;;;;;;;;;5044356;28;20271;-76
2021/10/29 07:54:45;;;;;;;8.13;6.97;;;;;;;;;;5043280;28;20240;-76
2021/10/29 07:57:12;;;;;;;8.97;7.27;;;;;;;;;;5043229;28;20267;-76
2021/10/29 07:59:38;;;;;;;10.10;7.50;;;;;;;;;;5043482;28;20214;-75
2021/10/29 08:02:05;;;;;;;9.10;6.80;;;;;;;;;;5044299;28;20213;-76
2021/10/29 08:04:31;;;;;;;9.03;7.13;;;;;;;;;;5041255;28;20685;-76
2021/10/29 08:06:58;;;;;;;10.40;7.67;;;;;;;;;;5043147;28;20927;-75
2021/10/29 08:09:27;;;;;;;9.77;7.83;;;;;;;;;;5043269;28;20280;-75
2021/10/29 08:11:54;;;;;;;11.73;7.57;;;;;;;;;;5043764;28;20627;-76
2021/10/29 08:14:22;;;;;;;11.07;7.23;;;;;;;;;;5043608;28;20241;-75
2021/10/29 08:16:49;;;;;;;8.93;7.83;;;;;;;;;;5044256;28;20310;-75
2021/10/29 08:19:19;;;;;;;8.00;7.03;;;;;;;;;;5044132;28;20222;-76
2021/10/29 08:21:46;;;;;;;12.40;7.27;;;;;;;;;;5044369;28;20376;-75
2021/10/29 08:24:13;;;;;;;8.50;6.93;;;;;;;;;;5043266;28;20233;-76
2021/10/29 08:26:40;;;;;;;8.70;7.37;;;;;;;;;;5043658;28;20317;-75
2021/10/29 08:29:07;;;;;;;8.73;7.20;;;;;;;;;;5043426;28;20307;-76
2021/10/29 08:31:34;;;;;;;8.37;7.40;;;;;;;;;;5043287;28;20214;-76
2021/10/29 08:34:01;;;;;;;9.60;6.60;;;;;;;;;;5042426;28;20279;-75
2021/10/29 08:36:28;;;;;;;9.70;6.90;;;;;;;;;;5043955;28;20214;-75
2021/10/29 08:38:55;;;;;;;9.37;7.10;;;;;;;;;;5044488;28;20655;-75
2021/10/29 08:41:21;;;;;;;7.97;7.07;;;;;;;;;;5042715;28;20221;-75
2021/10/29 08:43:49;;;;;;;11.57;6.57;;;;;;;;;;5042860;28;20219;-75
2021/10/29 08:46:16;;;;;;;9.47;7.03;;;;;;;;;;5044622;28;20664;-75
2021/10/29 08:48:43;;;;;;;8.57;6.73;;;;;;;;;;5043533;28;20234;-77
2021/10/29 08:51:10;;;;;;;8.40;6.57;;;;;;;;;;5043216;28;20887;-76
2021/10/29 08:53:37;;;;;;;10.87;7.23;;;;;;;;;;5043322;28;20288;-76
2021/10/29 08:56:06;;;;;;;9.13;7.03;;;;;;;;;;5044045;28;20215;-76
2021/10/29 08:58:36;;;;;;;10.27;6.63;;;;;;;;;;5041808;28;20242;-76
2021/10/29 09:01:06;;;;;;;10.47;6.30;;;;;;;;;;5043025;28;20214;-76
2021/10/29 09:03:41;;;;;;;12.07;6.73;;;;;;;;;;5041700;28;20214;-77
2021/10/29 09:06:21;;;;;;;10.57;6.23;;;;;;;;;;5044155;28;20256;-76
2021/10/29 09:09:04;;;;;;;8.47;6.60;;;;;;;;;;5042363;28;20642;-76
2021/10/29 09:11:51;;;;;;;8.90;6.27;;;;;;;;;;5042074;28;20224;-77
2021/10/29 09:17:43;;;;;;;7.83;6.47;;;;;;;;;;5042426;28;20731;-76
2021/10/29 09:31:24;;;;;;;9.20;5.93;;;;;;;;;;5043134;28;20222;-75
2021/10/29 09:33:53;;;;;;;14.37;6.67;;;;;;;;;;5042223;28;20241;-75
2021/10/29 09:36:31;;;;;;;10.57;6.47;;;;;;;;;;5041925;28;20585;-75
2021/10/29 09:39:00;;;;;;;8.27;5.07;;;;;;;;;;5041962;28;20242;-75
2021/10/29 09:41:26;;;;;;;14.50;5.73;;;;;;;;;;5042879;28;20389;-75
2021/10/29 09:43:55;;;;;;;9.90;6.10;;;;;;;;;;5042831;28;20217;-75
2021/10/29 09:46:42;;;;;;;6.43;5.77;;;;;;;;;;5041878;28;20234;-75
2021/10/29 09:49:18;;;;;;;10.10;5.80;;;;;;;;;;5043391;28;20332;-75
2021/10/29 09:51:52;;;;;;;7.70;5.17;;;;;;;;;;5041641;28;20218;-75
2021/10/29 09:54:21;;;;;;;9.07;5.60;;;;;;;;;;5040713;28;20237;-75
2021/10/29 09:56:53;;;;;;;18.60;6.20;;;;;;;;;;5043690;28;20360;-75
2021/10/29 09:59:20;;;;;;;7.93;5.57;;;;;;;;;;5041481;28;20684;-75
2021/10/29 10:01:46;;;;;;;16.07;6.23;;;;;;;;;;5040827;28;20305;-74
2021/10/29 10:04:14;;;;;;;10.87;6.73;;;;;;;;;;5043244;28;20230;-75
2021/10/29 10:06:42;;;;;;;7.83;6.00;;;;;;;;;;5040337;28;20738;-75
2021/10/29 10:09:09;;;;;;;9.07;5.70;;;;;;;;;;5042391;28;20227;-75
2021/10/29 10:11:41;;;;;;;15.90;6.80;;;;;;;;;;5041724;28;21003;-76
2021/10/29 10:14:09;;;;;;;9.57;6.33;;;;;;;;;;5041202;28;20247;-76
2021/10/29 10:16:38;;;;;;;9.20;5.40;;;;;;;;;;5041155;28;20306;-76
2021/10/29 10:19:04;;;;;;;10.33;5.60;;;;;;;;;;5043493;28;20224;-76
2021/10/29 10:21:38;;;;;;;8.30;5.40;;;;;;;;;;5039989;28;20216;-76
2021/10/29 10:24:09;;;;;;;11.83;5.77;;;;;;;;;;5042118;28;20233;-76
2021/10/29 10:26:49;;;;;;;13.00;5.80;;;;;;;;;;5043088;28;20217;-75
2021/10/29 10:46:14;;;;;;;10.00;5.50;;;;;;;;;;5053583;28;20210;-74
2021/10/29 10:48:47;;;;;;;76.90;10.60;;;;;;;;;;5051196;28;20249;-74
2021/10/29 10:51:34;;;;;;;10.00;5.30;;;;;;;;;;5051644;28;20251;-75
2021/10/29 10:54:05;;;;;;;12.80;5.70;;;;;;;;;;5051820;28;20576;-74
2021/10/29 10:56:59;;;;;;;8.70;5.43;;;;;;;;;;5052946;28;20211;-74
2021/10/29 10:59:38;;;;;;;11.20;5.23;;;;;;;;;;5051529;28;20223;-74
2021/10/29 11:10:56;;;;;;;22.23;6.27;;;;;;;;;;5048880;28;20327;-74
2021/10/29 11:13:23;;;;;;;7.53;5.73;;;;;;;;;;5049980;28;20303;-74
2021/10/29 11:16:01;;;;;;;8.40;5.10;;;;;;;;;;5051750;28;20290;-74
2021/10/29 11:18:31;;;;;;;10.30;5.60;;;;;;;;;;5052403;28;20221;-74
2021/10/29 11:21:08;;;;;;;19.40;6.60;;;;;;;;;;5051967;28;20242;-74
2021/10/29 11:23:36;;;;;;;20.50;6.73;;;;;;;;;;5051991;28;20672;-74
2021/10/29 11:26:04;;;;;;;8.07;5.50;;;;;;;;;;5051253;28;20220;-75
2021/10/29 11:28:33;;;;;;;10.93;5.63;;;;;;;;;;5048541;28;20220;-75
2021/10/29 11:31:02;;;;;;;10.03;5.27;;;;;;;;;;5052813;28;20563;-74
2021/10/29 11:33:29;;;;;;;8.77;5.37;;;;;;;;;;5050469;28;20220;-74
2021/10/29 11:35:58;;;;;;;25.87;6.37;;;;;;;;;;5052166;28;20661;-74
2021/10/29 11:38:26;;;;;;;8.47;5.37;;;;;;;;;;5051111;28;20313;-74
2021/10/29 11:40:53;;;;;;;7.77;4.90;;;;;;;;;;5050406;28;20214;-74
2021/10/29 11:43:21;;;;;;;9.27;5.20;;;;;;;;;;5040806;28;20215;-74
2021/10/29 11:45:48;;;;;;;7.87;5.20;;;;;;;;;;5037763;28;20212;-74
2021/10/29 11:48:14;;;;;;;9.73;5.77;;;;;;;;;;5038504;28;20217;-74
2021/10/29 11:50:41;;;;;;;9.00;4.67;;;;;;;;;;5038519;28;20244;-75
2021/10/29 11:53:10;;;;;;;7.67;5.77;;;;;;;;;;5038698;28;20213;-74
2021/10/29 11:55:42;;;;;;;6.00;4.90;;;;;;;;;;5036616;28;20248;-74
2021/10/29 11:58:14;;;;;;;10.40;5.13;;;;;;;;;;5038061;28;20277;-74
2021/10/29 12:00:52;;;;;;;18.70;5.37;;;;;;;;;;5036146;28;20210;-74
2021/10/29 12:06:19;;;;;;;7.07;4.87;;;;;;;;;;5037977;28;20241;-74
2021/10/29 12:08:46;;;;;;;4.97;4.13;;;;;;;;;;5037142;28;20244;-74
2021/10/29 12:11:19;;;;;;;8.40;4.67;;;;;;;;;;5037732;28;20441;-74
2021/10/29 12:13:46;;;;;;;11.37;5.47;;;;;;;;;;5037926;28;20228;-74
2021/10/29 12:16:22;;;;;;;7.50;4.70;;;;;;;;;;5036629;28;20210;-74
2021/10/29 12:18:55;;;;;;;12.57;5.03;;;;;;;;;;5038656;28;20540;-73
2021/10/29 12:21:24;;;;;;;10.07;4.80;;;;;;;;;;5036861;28;20289;-74
2021/10/29 12:23:51;;;;;;;15.50;4.93;;;;;;;;;;5037162;28;20293;-73
2021/10/29 12:26:22;;;;;;;8.77;4.53;;;;;;;;;;5036036;28;20678;-74
2021/10/29 12:28:52;;;;;;;6.57;4.47;;;;;;;;;;5035838;28;20298;-73
2021/10/29 12:31:30;;;;;;;5.23;3.93;;;;;;;;;;5038067;28;20275;-74
2021/10/29 12:34:13;;;;;;;8.40;4.80;;;;;;;;;;5037163;28;20795;-73
2021/10/29 12:53:52;;;;;;;17.77;6.37;;;;;;;;;;5036166;28;20309;-75
2021/10/29 13:01:55;;;;;;;10.90;5.70;;;;;;;;;;5036249;28;20349;-75
2021/10/29 13:04:23;;;;;;;8.70;4.90;;;;;;;;;;5036415;28;20583;-75
2021/10/29 13:06:52;;;;;;;7.60;5.30;;;;;;;;;;5036003;28;20661;-75
2021/10/29 13:09:20;;;;;;;12.37;5.27;;;;;;;;;;5038351;28;21222;-75
2021/10/29 13:11:50;;;;;;;8.50;6.57;;;;;;;;;;5035663;28;20598;-75
2021/10/29 13:14:26;;;;;;;8.80;5.70;;;;;;;;;;5034281;28;20240;-75
2021/10/29 13:16:53;;;;;;;8.87;5.33;;;;;;;;;;5036848;28;20340;-75
2021/10/29 13:19:35;;;;;;;21.53;6.77;;;;;;;;;;5036717;28;20243;-75
2021/10/29 13:25:23;;;;;;;12.83;5.90;;;;;;;;;;5036339;28;20318;-74
2021/10/29 13:28:13;;;;;;;19.97;6.60;;;;;;;;;;5038598;28;20677;-75
2021/10/29 13:36:21;;;;;;;13.57;5.13;;;;;;;;;;5034987;28;20234;-75
2021/10/29 13:53:03;;;;;;;7.50;4.93;;;;;;;;;;5035477;28;20879;-75
2021/10/29 13:55:45;;;;;;;10.83;5.07;;;;;;;;;;5036104;28;20213;-75
2021/10/29 13:58:26;;;;;;;11.90;4.93;;;;;;;;;;5036241;28;20529;-75
2021/10/29 14:01:24;;;;;;;8.37;4.83;;;;;;;;;;5035883;28;20203;-75
2021/10/29 14:28:41;;;;;;;8.57;5.53;;;;;;;;;;5034063;28;20223;-75
2021/10/29 14:31:12;;;;;;;10.57;5.70;;;;;;;;;;5036285;28;20277;-75
2021/10/29 14:33:46;;;;;;;8.47;4.90;;;;;;;;;;5033629;28;20213;-75
2021/10/29 14:36:14;;;;;;;8.00;5.43;;;;;;;;;;5036680;28;20705;-76
2021/10/29 14:38:53;;;;;;;5.40;4.90;;;;;;;;;;5034613;28;20228;-75
2021/10/29 14:41:25;;;;;;;11.67;5.37;;;;;;;;;;5033016;28;20210;-75
2021/10/29 14:43:55;;;;;;;5.67;5.17;;;;;;;;;;5033804;28;20221;-76
2021/10/29 14:46:36;;;;;;;6.93;5.70;;;;;;;;;;5035375;28;20292;-76
2021/10/29 14:49:10;;;;;;;8.93;5.67;;;;;;;;;;5032354;28;20230;-76
2021/10/29 14:52:07;;;;;;;16.17;6.10;;;;;;;;;;5033097;28;20233;-76
2021/10/29 15:00:33;;;;;;;11.47;5.97;;;;;;;;;;5034747;28;20244;-76
2021/10/29 15:05:58;;;;;;;11.70;6.00;;;;;;;;;;5024115;28;20285;-76
2021/10/29 15:17:01;;;;;;;9.20;6.37;;;;;;;;;;5033489;28;20264;-76
2021/10/29 15:25:13;;;;;;;9.07;6.70;;;;;;;;;;5037115;28;20291;-76
2021/10/29 15:30:30;;;;;;;8.50;6.80;;;;;;;;;;5039768;28;20253;-76
2021/10/29 15:33:16;;;;;;;7.60;6.10;;;;;;;;;;5035449;28;20227;-76
2021/10/29 15:41:41;;;;;;;8.10;6.30;;;;;;;;;;4964893;28;20783;-76
2021/10/29 15:44:11;;;;;;;8.70;6.30;;;;;;;;;;4967565;28;20225;-76
2021/10/29 15:46:42;;;;;;;8.40;6.53;;;;;;;;;;5005780;28;20233;-76
2021/10/29 15:49:21;;;;;;;9.50;6.67;;;;;;;;;;5037633;28;20809;-76
2021/10/29 15:51:51;;;;;;;9.70;5.83;;;;;;;;;;5037594;28;20254;-76
2021/10/29 15:54:17;;;;;;;13.40;6.77;;;;;;;;;;5036848;28;20227;-76
2021/10/29 15:56:48;;;;;;;11.43;6.93;;;;;;;;;;5038440;28;20626;-76
2021/10/29 15:59:23;;;;;;;15.00;6.43;;;;;;;;;;5038749;28;20237;-76
2021/10/29 16:01:53;;;;;;;10.23;6.50;;;;;;;;;;5040012;28;20236;-76
2021/10/29 16:18:02;;;;;;;13.53;6.83;;;;;;;;;;5040932;28;20264;-76
2021/10/29 16:20:29;;;;;;;8.53;6.60;;;;;;;;;;5041495;28;20227;-76
2021/10/29 16:22:58;;;;;;;9.97;6.77;;;;;;;;;;5037970;28;20208;-76
2021/10/29 16:25:29;;;;;;;8.53;7.10;;;;;;;;;;5037927;28;20219;-76
2021/10/29 16:27:59;;;;;;;8.27;6.47;;;;;;;;;;5038846;28;20716;-76
2021/10/29 16:30:27;;;;;;;10.40;6.90;;;;;;;;;;5036696;28;20269;-76
2021/10/29 16:33:18;;;;;;;11.97;7.50;;;;;;;;;;5037244;28;20227;-76
2021/10/29 16:35:44;;;;;;;11.40;7.17;;;;;;;;;;5039108;28;20614;-76
2021/10/29 16:38:11;;;;;;;10.90;7.37;;;;;;;;;;5038574;28;20622;-76
2021/10/29 16:40:38;;;;;;;7.47;6.40;;;;;;;;;;5037157;28;20242;-76
2021/10/29 16:43:06;;;;;;;11.10;6.60;;;;;;;;;;5039895;28;20198;-76
2021/10/29 16:45:34;;;;;;;7.17;6.07;;;;;;;;;;5037440;28;20269;-76
2021/10/29 16:48:01;;;;;;;7.17;5.63;;;;;;;;;;5038911;28;20211;-76
2021/10/29 16:50:27;;;;;;;9.20;6.30;;;;;;;;;;5035151;28;20608;-76
2021/10/29 16:52:53;;;;;;;9.83;6.20;;;;;;;;;;5040008;28;20240;-76
2021/10/29 16:55:20;;;;;;;6.93;5.63;;;;;;;;;;5038308;28;20230;-77
2021/10/29 16:57:47;;;;;;;6.33;5.60;;;;;;;;;;5036648;28;20207;-77
2021/10/29 17:00:16;;;;;;;9.27;5.83;;;;;;;;;;5035470;28;20200;-76
2021/10/29 17:02:42;;;;;;;7.83;5.57;;;;;;;;;;5038007;28;20217;-77
2021/10/29 17:05:11;;;;;;;6.77;5.20;;;;;;;;;;5037842;28;20642;-76
2021/10/29 17:07:37;;;;;;;6.90;5.10;;;;;;;;;;5038013;28;20209;-76
2021/10/29 17:10:08;;;;;;;7.43;6.20;;;;;;;;;;5035709;28;20226;-76
2021/10/29 17:12:34;;;;;;;14.43;8.33;;;;;;;;;;5037450;28;20889;-76
2021/10/29 17:15:01;;;;;;;8.73;6.00;;;;;;;;;;5035769;28;20206;-76
2021/10/29 17:17:28;;;;;;;8.97;5.90;;;;;;;;;;5035277;28;20216;-76
2021/10/29 17:19:55;;;;;;;9.47;6.73;;;;;;;;;;5034235;28;20284;-76
2021/10/29 17:22:21;;;;;;;6.37;4.37;;;;;;;;;;5037288;28;20266;-76
2021/10/29 17:24:47;;;;;;;6.90;4.60;;;;;;;;;;5036314;28;20231;-76
2021/10/29 17:27:15;;;;;;;7.30;4.13;;;;;;;;;;5036621;28;20210;-76
2021/10/29 17:29:41;;;;;;;6.47;4.30;;;;;;;;;;5037227;28;20215;-76
2021/10/29 17:32:11;;;;;;;8.77;4.03;;;;;;;;;;5034713;28;20288;-76
2021/10/29 17:34:39;;;;;;;6.90;4.27;;;;;;;;;;5036032;28;20254;-76
2021/10/29 17:37:05;;;;;;;7.63;3.70;;;;;;;;;;5035935;28;20269;-76
2021/10/29 17:39:32;;;;;;;6.47;3.93;;;;;;;;;;5035821;28;20939;-76
2021/10/29 17:42:01;;;;;;;7.43;4.10;;;;;;;;;;5036441;28;20208;-76
2021/10/29 17:44:28;;;;;;;19.97;4.07;;;;;;;;;;5035660;28;20261;-76
2021/10/29 17:46:55;;;;;;;7.83;3.43;;;;;;;;;;5035813;28;20263;-76
2021/10/29 17:49:22;;;;;;;9.87;2.47;;;;;;;;;;5037246;28;20599;-78
2021/10/29 17:51:50;;;;;;;22.83;3.03;;;;;;;;;;5034844;28;20262;-74
2021/10/29 17:54:16;;;;;;;6.27;2.40;;;;;;;;;;5034460;28;20238;-75
2021/10/29 17:56:43;;;;;;;2.33;2.00;;;;;;;;;;5035715;28;20215;-75
2021/10/29 17:59:09;;;;;;;4.73;1.97;;;;;;;;;;5035294;28;20214;-76
2021/10/29 18:01:35;;;;;;;2.83;1.97;;;;;;;;;;5038128;28;20237;-76
2021/10/29 18:04:02;;;;;;;4.17;2.30;;;;;;;;;;5038437;28;20620;-77
2021/10/29 18:06:29;;;;;;;5.63;2.60;;;;;;;;;;5033378;28;20239;-76
2021/10/29 18:09:04;;;;;;;3.93;2.70;;;;;;;;;;5033968;28;20709;-76